createdAt,value
2019-01-11T00:03:51.360Z,11.47
2019-01-11T00:08:53.257Z,13.13
2019-01-11T00:14:02.260Z,15.73
2019-01-11T00:19:07.216Z,12.50
2019-01-11T00:24:22.567Z,16.13
2019-01-11T00:29:24.583Z,39.53
2019-01-11T00:34:39.834Z,36.27
2019-01-11T00:39:46.594Z,44.93
2019-01-11T00:44:49.428Z,21.93
2019-01-11T00:49:54.509Z,30.90
2019-01-11T00:55:08.695Z,26.50
2019-01-11T01:00:24.101Z,36.03
2019-01-11T01:05:26.228Z,25.30
2019-01-11T01:10:27.848Z,36.00
2019-01-11T01:15:33.151Z,26.07
2019-01-11T01:20:35.341Z,21.50
2019-01-11T01:25:36.992Z,24.80
2019-01-11T01:30:39.094Z,30.90
2019-01-11T01:35:40.772Z,30.93
2019-01-11T01:40:43.223Z,30.37
2019-01-11T01:45:45.057Z,29.37
2019-01-11T01:50:48.523Z,35.43
2019-01-11T01:55:55.780Z,29.50
2019-01-11T02:01:10.707Z,28.50
2019-01-11T02:06:13.822Z,32.50
2019-01-11T02:11:15.966Z,30.03
2019-01-11T02:16:18.286Z,34.70
2019-01-11T02:21:26.865Z,30.00
2019-01-11T02:32:00.008Z,34.70
2019-01-11T02:37:01.553Z,32.10
2019-01-11T02:42:05.051Z,37.10
2019-01-11T02:47:09.765Z,39.33
2019-01-11T02:52:14.370Z,33.40
2019-01-11T02:57:16.404Z,36.23
2019-01-11T03:02:18.075Z,34.50
2019-01-11T03:07:36.284Z,38.00
2019-01-11T03:12:39.672Z,33.30
2019-01-11T03:18:01.306Z,31.13
2019-01-11T03:23:05.758Z,28.17
2019-01-11T03:28:08.006Z,30.03
2019-01-11T03:33:11.831Z,27.17
2019-01-11T03:38:14.358Z,25.40
2019-01-11T03:43:27.071Z,20.40
2019-01-11T03:48:29.618Z,23.03
2019-01-11T03:53:41.741Z,22.50
2019-01-11T03:58:47.051Z,21.77
2019-01-11T04:03:48.655Z,20.90
2019-01-11T04:08:50.875Z,23.13
2019-01-11T04:14:08.196Z,19.30
2019-01-11T04:19:12.439Z,20.87
2019-01-11T04:24:24.861Z,20.47
2019-01-11T04:29:33.383Z,20.07
2019-01-11T04:34:35.854Z,20.00
2019-01-11T04:39:38.432Z,22.07
2019-01-11T04:44:51.550Z,22.07
2019-01-11T04:49:54.466Z,19.97
2019-01-11T04:55:01.036Z,19.53
2019-01-11T05:00:17.890Z,19.90
2019-01-11T05:05:19.572Z,22.70
2019-01-11T05:10:21.441Z,21.80
2019-01-11T05:15:31.218Z,16.03
2019-01-11T05:20:34.968Z,20.47
2019-01-11T05:25:51.287Z,17.13
2019-01-11T05:30:57.992Z,19.97
2019-01-11T05:35:59.906Z,18.13
2019-01-11T05:41:03.196Z,13.63
2019-01-11T05:46:13.472Z,15.90
2019-01-11T05:51:21.575Z,13.37
2019-01-11T05:56:25.305Z,14.23
2019-01-11T06:01:43.377Z,15.10
2019-01-11T06:06:54.532Z,10.27
2019-01-11T06:11:58.547Z,13.40
2019-01-11T06:17:08.068Z,15.50
2019-01-11T06:22:10.650Z,15.80
2019-01-11T06:27:12.389Z,14.93
2019-01-11T06:32:23.621Z,16.67
2019-01-11T06:37:27.743Z,10.13
2019-01-11T06:42:29.545Z,13.57
2019-01-11T06:47:41.108Z,13.23
2019-01-11T06:52:44.732Z,12.43
2019-01-11T06:57:55.048Z,14.47
2019-01-11T07:03:03.200Z,12.97
2019-01-11T07:08:06.034Z,13.80
2019-01-11T07:13:08.224Z,13.80
2019-01-11T07:18:30.679Z,12.93
2019-01-11T07:23:32.088Z,15.10
2019-01-11T07:28:34.174Z,10.10
2019-01-11T07:33:36.699Z,12.70
2019-01-11T07:38:48.155Z,10.23
2019-01-11T07:43:50.595Z,9.63
2019-01-11T07:48:53.044Z,8.20
2019-01-11T07:53:55.524Z,9.20
2019-01-11T07:58:57.122Z,6.90
2019-01-11T08:03:59.656Z,8.27
2019-01-11T08:09:01.952Z,8.27
2019-01-11T08:14:07.560Z,7.20
2019-01-11T08:19:11.450Z,7.73
2019-01-11T08:24:15.566Z,6.40
2019-01-11T08:29:18.811Z,6.27
2019-01-11T08:34:23.566Z,6.57
2019-01-11T08:39:36.712Z,7.90
2019-01-11T08:44:39.404Z,7.50
2019-01-11T08:49:41.946Z,8.80
2019-01-11T08:54:44.219Z,7.60
2019-01-11T08:59:48.656Z,8.60
2019-01-11T09:04:52.512Z,8.00
2019-01-11T09:15:46.743Z,6.40
2019-01-11T09:20:54.094Z,7.00
2019-01-11T09:26:02.630Z,5.13
2019-01-11T09:31:08.087Z,6.00
2019-01-11T09:36:12.199Z,7.90
2019-01-11T09:41:36.517Z,6.50
2019-01-11T09:46:38.678Z,5.63
2019-01-11T09:51:42.638Z,5.37
2019-01-11T09:56:44.664Z,7.53
2019-01-11T10:01:52.454Z,4.87
2019-01-11T10:06:57.059Z,4.60
2019-01-11T10:11:59.914Z,4.50
2019-01-11T10:17:01.666Z,4.63
2019-01-11T10:22:04.343Z,4.07
2019-01-11T10:27:06.589Z,6.40
2019-01-11T10:32:11.212Z,4.67
2019-01-11T10:37:15.985Z,6.93
2019-01-11T10:42:18.068Z,7.57
2019-01-11T10:47:19.854Z,6.57
2019-01-11T10:52:41.679Z,9.10
2019-01-11T10:58:06.285Z,9.87
2019-01-11T11:03:14.778Z,8.73
2019-01-11T11:08:22.664Z,11.67
2019-01-11T11:13:25.264Z,11.70
2019-01-11T11:18:28.815Z,10.47
2019-01-11T11:28:53.988Z,10.47
2019-01-11T11:34:09.218Z,9.80
2019-01-11T11:39:17.630Z,9.10
2019-01-11T11:44:20.353Z,8.10
2019-01-11T11:49:27.049Z,10.40
2019-01-11T11:54:28.793Z,11.17
2019-01-11T11:59:35.720Z,13.97
2019-01-11T12:04:40.777Z,9.67
2019-01-11T12:09:42.362Z,9.40
2019-01-11T12:14:49.325Z,10.87
2019-01-11T12:19:57.039Z,14.30
2019-01-11T12:24:59.810Z,15.13
2019-01-11T12:30:02.636Z,11.30
2019-01-11T12:35:07.296Z,12.87
2019-01-11T12:40:13.325Z,13.93
2019-01-11T12:45:16.923Z,14.80
2019-01-11T12:50:23.847Z,14.73
2019-01-11T12:55:34.490Z,17.70
2019-01-11T13:00:40.066Z,19.00
2019-01-11T13:05:43.011Z,16.47
2019-01-11T13:10:47.636Z,17.33
2019-01-11T13:15:53.589Z,14.23
2019-01-11T13:20:55.548Z,19.60
2019-01-11T13:25:58.812Z,20.03
2019-01-11T13:31:03.840Z,15.47
2019-01-11T13:36:11.251Z,19.07
2019-01-11T13:41:13.189Z,16.30
2019-01-11T13:46:17.465Z,19.27
2019-01-11T13:51:22.928Z,20.83
2019-01-11T13:56:26.913Z,14.33
2019-01-11T14:01:34.209Z,17.50
2019-01-11T14:06:43.952Z,18.17
2019-01-11T14:11:49.880Z,25.03
2019-01-11T14:16:54.387Z,20.73
2019-01-11T14:21:56.231Z,20.13
2019-01-11T14:26:59.383Z,20.70
2019-01-11T14:32:02.861Z,18.20
2019-01-11T14:37:04.588Z,18.20
2019-01-11T14:42:09.960Z,17.43
2019-01-11T14:47:22.083Z,16.03
2019-01-11T14:52:27.579Z,18.10
2019-01-11T14:57:30.773Z,18.70
2019-01-11T15:02:34.547Z,17.50
2019-01-11T15:07:36.838Z,20.93
2019-01-11T15:12:40.013Z,17.30
2019-01-11T15:17:41.818Z,18.20
2019-01-11T15:22:47.730Z,18.23
2019-01-11T15:27:51.398Z,21.30
2019-01-11T15:38:08.400Z,22.07
2019-01-11T15:43:11.218Z,17.07
2019-01-11T15:48:18.262Z,19.33
2019-01-11T15:53:28.949Z,20.70
2019-01-11T15:58:38.483Z,24.47
2019-01-11T16:03:40.066Z,21.63
2019-01-11T16:09:11.513Z,19.87
2019-01-11T16:14:29.507Z,18.63
2019-01-11T16:19:37.315Z,19.37
2019-01-11T16:24:41.448Z,18.77
2019-01-11T16:29:45.249Z,21.37
2019-01-11T16:34:47.099Z,18.60
2019-01-11T16:39:51.489Z,25.70
2019-01-11T16:44:55.658Z,19.00
2019-01-11T16:50:01.927Z,19.20
2019-01-11T16:55:05.646Z,16.10
2019-01-11T17:00:20.580Z,18.33
2019-01-11T17:05:22.448Z,15.53
2019-01-11T17:10:23.840Z,16.37
2019-01-11T17:15:25.491Z,18.73
2019-01-11T17:20:27.571Z,16.23
2019-01-11T17:25:29.345Z,14.50
2019-01-11T17:30:31.021Z,14.90
2019-01-11T17:35:32.714Z,20.93
2019-01-11T17:40:34.466Z,17.93
2019-01-11T17:45:37.599Z,13.73
2019-01-11T17:50:44.684Z,18.23
2019-01-11T17:55:46.774Z,14.40
2019-01-11T18:00:48.445Z,15.40
2019-01-11T18:05:50.655Z,15.20
2019-01-11T18:10:52.396Z,15.93
2019-01-11T18:15:54.068Z,16.30
2019-01-11T18:20:56.128Z,21.47
2019-01-11T18:25:57.829Z,16.40
2019-01-11T18:30:59.607Z,12.53
2019-01-11T18:36:01.380Z,19.17
2019-01-11T18:41:03.601Z,18.87
2019-01-11T18:46:05.452Z,17.00
2019-01-11T18:51:07.654Z,13.40
2019-01-11T18:56:09.326Z,17.70
2019-01-11T19:01:10.999Z,17.40
2019-01-11T19:06:12.681Z,12.10
2019-01-11T19:11:21.739Z,18.03
2019-01-11T19:16:24.067Z,17.50
2019-01-11T19:21:25.827Z,17.00
2019-01-11T19:26:27.597Z,14.57
2019-01-11T19:31:29.315Z,13.10
2019-01-11T19:36:31.029Z,15.67
2019-01-11T19:41:32.793Z,13.67
2019-01-11T19:46:37.013Z,15.20
2019-01-11T19:51:38.788Z,16.83
2019-01-11T19:56:42.340Z,16.03
2019-01-11T20:01:44.015Z,14.50
2019-01-11T20:06:46.215Z,13.53
2019-01-11T20:11:47.880Z,18.20
2019-01-11T20:16:49.649Z,16.40
2019-01-11T20:21:51.741Z,17.37
2019-01-11T20:26:53.513Z,16.10
2019-01-11T20:31:55.311Z,15.77
2019-01-11T20:37:01.902Z,14.60
2019-01-11T20:42:03.872Z,14.20
2019-01-11T20:47:05.634Z,17.07
2019-01-11T20:52:08.268Z,15.37
2019-01-11T20:57:09.999Z,14.60
2019-01-11T21:02:12.391Z,16.73
2019-01-11T21:07:21.586Z,13.40
2019-01-11T21:12:23.333Z,15.77
2019-01-11T21:17:25.004Z,15.00
2019-01-11T21:22:27.195Z,15.50
2019-01-11T21:27:29.382Z,12.77
2019-01-11T21:32:31.055Z,14.63
2019-01-11T21:37:32.827Z,14.17
2019-01-11T21:42:34.606Z,12.27
2019-01-11T21:47:38.952Z,14.33
2019-01-11T21:52:41.234Z,14.30
2019-01-11T21:57:44.141Z,15.60
2019-01-11T22:02:48.571Z,16.73
2019-01-11T22:07:53.272Z,14.07
2019-01-11T22:12:55.769Z,15.30
2019-01-11T22:18:00.593Z,14.70
2019-01-11T22:23:02.695Z,16.03
2019-01-11T22:28:04.455Z,15.83
2019-01-11T22:33:06.108Z,11.60
2019-01-11T22:38:09.595Z,16.43
2019-01-11T22:43:11.277Z,13.80
2019-01-11T22:48:13.405Z,14.70
2019-01-11T22:53:15.182Z,12.57
2019-01-11T22:58:16.839Z,12.50
2019-01-11T23:03:24.895Z,15.23
2019-01-11T23:08:26.681Z,13.47
2019-01-11T23:13:29.670Z,15.10
2019-01-11T23:18:34.587Z,12.90
2019-01-11T23:23:36.677Z,17.67
2019-01-11T23:28:38.505Z,13.20
2019-01-11T23:33:40.185Z,14.23
2019-01-11T23:38:44.389Z,13.17
2019-01-11T23:43:51.275Z,14.13
2019-01-11T23:48:58.813Z,17.37
2019-01-11T23:54:00.558Z,12.10
2019-01-11T23:59:05.772Z,12.43
